Terminal Aerodrome Forecast
Issued by NWS Lake Charles, LA

Home | Current Version | Previous Version | Text Only | Print | Product List | Glossary On
Versions: 1 2 3 4 5 6 7 8 9 10 11 12 13 14 15 16 17 18 19 20 21 22 23 24
000
FTUS44 KLCH 271136
TAFARA
TAF
KARA 271136Z 2712/2812 09007KT 5SM BR SCT040
     FM271300 09008KT 6SM BR VCTS OVC035CB
      TEMPO 2713/2715 32020G30KT 1/2SM +TSRA OVC006CB
     FM271600 12010G15KT P6SM -RA OVC080
     FM271800 06010KT P6SM OVC250=

USA.gov is the U.S. government's official web portal to all federal, state and local government web resources and services.